TAP238 LPPR-GVAC
Flight info
| Callsign | TAP238 |
|---|---|
| Flight time | N/A |
| Altitude | 35000 |
| Route | ASMOV DCT BEXAL DCT SAMAR DCT YUSME/N0452F370 DCT LIMAL/N0459F360 N873 IPERA DCT DIMKI DIMKI1S |
| Aircraft | A320/M-SDE3FGHIRWY/LB1 |
Departure
| Time | N/A |
|---|---|
| Airport | Francisco de Sá Carneiro Airport (LPPR) |
Arrival
| Time | 2026-04-21 17:26 |
|---|---|
| Airport | Amílcar Cabral International Airport (GVAC) |
| Time | Latitude | Longitude | Altitude | Speed | Heading |
|---|---|---|---|---|---|
| 2026-04-21 15:26 | 30.21015 | -14.81197 | 34962 ft | 487 kts | 210° |
| 2026-04-21 15:26 | 30.17987 | -14.82918 | 34961 ft | 487 kts | 210° |
| 2026-04-21 15:27 | 30.11915 | -14.86389 | 34958 ft | 486 kts | 210° |
| 2026-04-21 15:27 | 30.05886 | -14.89831 | 34949 ft | 487 kts | 210° |
| 2026-04-21 15:28 | 29.99813 | -14.93284 | 34945 ft | 487 kts | 210° |
| 2026-04-21 15:28 | 29.93733 | -14.96724 | 34945 ft | 487 kts | 210° |
| 2026-04-21 15:29 | 29.87649 | -15.00159 | 34955 ft | 486 kts | 210° |
| 2026-04-21 15:29 | 29.81585 | -15.03587 | 34953 ft | 486 kts | 210° |
| 2026-04-21 15:30 | 29.75545 | -15.06998 | 34950 ft | 486 kts | 210° |
| 2026-04-21 15:30 | 29.69479 | -15.10423 | 34954 ft | 486 kts | 210° |
| 2026-04-21 15:31 | 29.63410 | -15.13846 | 34955 ft | 486 kts | 210° |
| 2026-04-21 15:31 | 29.57337 | -15.17265 | 34957 ft | 486 kts | 210° |
| 2026-04-21 15:32 | 29.51304 | -15.20650 | 34950 ft | 486 kts | 210° |
| 2026-04-21 15:32 | 29.45226 | -15.24052 | 34955 ft | 486 kts | 210° |
| 2026-04-21 15:33 | 29.39146 | -15.27464 | 34958 ft | 487 kts | 210° |
| 2026-04-21 15:33 | 29.33057 | -15.30881 | 34961 ft | 487 kts | 210° |
| 2026-04-21 15:34 | 29.26974 | -15.34276 | 34962 ft | 487 kts | 210° |
| 2026-04-21 15:34 | 29.20875 | -15.37680 | 34955 ft | 487 kts | 210° |
| 2026-04-21 15:35 | 29.14826 | -15.41057 | 34963 ft | 488 kts | 210° |
| 2026-04-21 15:35 | 29.08720 | -15.44460 | 34969 ft | 488 kts | 210° |
| 2026-04-21 15:36 | 29.02610 | -15.47857 | 34973 ft | 489 kts | 210° |
| 2026-04-21 15:36 | 28.96530 | -15.51233 | 34978 ft | 489 kts | 210° |
| 2026-04-21 15:37 | 28.90418 | -15.54616 | 34970 ft | 489 kts | 210° |
| 2026-04-21 15:37 | 28.84295 | -15.58001 | 34973 ft | 489 kts | 210° |
| 2026-04-21 15:38 | 28.78189 | -15.61386 | 34974 ft | 488 kts | 210° |
| 2026-04-21 15:38 | 28.72067 | -15.64766 | 34949 ft | 488 kts | 210° |
| 2026-04-21 15:39 | 28.65999 | -15.68107 | 34965 ft | 487 kts | 210° |
| 2026-04-21 15:39 | 28.59903 | -15.71459 | 34963 ft | 487 kts | 211° |
| 2026-04-21 15:40 | 28.53804 | -15.74809 | 34959 ft | 487 kts | 211° |
| 2026-04-21 15:40 | 28.47710 | -15.78162 | 34960 ft | 486 kts | 211° |
| 2026-04-21 15:41 | 28.41621 | -15.81509 | 34963 ft | 486 kts | 211° |
| 2026-04-21 15:41 | 28.35563 | -15.84833 | 34963 ft | 486 kts | 211° |
| 2026-04-21 15:42 | 28.29475 | -15.88172 | 34954 ft | 486 kts | 211° |
| 2026-04-21 15:42 | 28.23382 | -15.91503 | 34965 ft | 486 kts | 211° |
| 2026-04-21 15:43 | 28.17292 | -15.94824 | 34972 ft | 486 kts | 211° |
| 2026-04-21 15:43 | 28.11235 | -15.98119 | 34973 ft | 486 kts | 211° |
| 2026-04-21 15:44 | 28.05158 | -16.01428 | 34957 ft | 485 kts | 211° |
| 2026-04-21 15:44 | 27.99084 | -16.04738 | 34962 ft | 483 kts | 211° |
| 2026-04-21 15:45 | 27.93035 | -16.08019 | 34971 ft | 482 kts | 211° |
| 2026-04-21 15:45 | 27.86988 | -16.11291 | 34973 ft | 481 kts | 211° |
| 2026-04-21 15:46 | 27.80952 | -16.14565 | 34972 ft | 481 kts | 211° |
| 2026-04-21 15:46 | 27.74970 | -16.17808 | 34968 ft | 480 kts | 211° |
| 2026-04-21 15:47 | 27.68950 | -16.21064 | 34944 ft | 480 kts | 212° |
| 2026-04-21 15:47 | 27.62947 | -16.24303 | 34976 ft | 478 kts | 212° |
| 2026-04-21 15:48 | 27.56957 | -16.27528 | 34971 ft | 476 kts | 212° |
| 2026-04-21 15:48 | 27.51024 | -16.30721 | 34983 ft | 475 kts | 212° |
| 2026-04-21 15:49 | 27.45058 | -16.33932 | 34975 ft | 475 kts | 212° |
| 2026-04-21 15:49 | 27.39094 | -16.37138 | 34963 ft | 474 kts | 212° |
| 2026-04-21 15:50 | 27.33151 | -16.40320 | 34960 ft | 473 kts | 213° |
| 2026-04-21 15:50 | 27.27254 | -16.43479 | 34976 ft | 472 kts | 213° |
| 2026-04-21 15:51 | 27.21336 | -16.46650 | 34976 ft | 471 kts | 213° |
| 2026-04-21 15:51 | 27.15428 | -16.49815 | 34974 ft | 470 kts | 213° |
| 2026-04-21 15:52 | 27.09519 | -16.52975 | 35017 ft | 470 kts | 213° |
| 2026-04-21 15:52 | 27.06570 | -16.54546 | 35272 ft | 469 kts | 213° |
| 2026-04-21 15:52 | 27.03672 | -16.56085 | 35597 ft | 465 kts | 213° |
| 2026-04-21 15:53 | 27.00785 | -16.57618 | 35862 ft | 463 kts | 214° |
| 2026-04-21 15:53 | 26.97914 | -16.59144 | 35950 ft | 462 kts | 214° |
| 2026-04-21 15:53 | 26.92122 | -16.62233 | 35960 ft | 461 kts | 214° |
| 2026-04-21 15:54 | 26.86330 | -16.65319 | 35967 ft | 461 kts | 214° |
| 2026-04-21 15:54 | 26.80538 | -16.68396 | 35962 ft | 461 kts | 214° |
| 2026-04-21 15:55 | 26.74787 | -16.71440 | 35960 ft | 459 kts | 214° |
| 2026-04-21 15:55 | 26.69012 | -16.74501 | 35967 ft | 459 kts | 214° |
| 2026-04-21 15:56 | 26.63253 | -16.77550 | 35971 ft | 458 kts | 214° |
| 2026-04-21 15:56 | 26.57501 | -16.80595 | 35970 ft | 458 kts | 214° |
| 2026-04-21 15:57 | 26.51733 | -16.83636 | 35971 ft | 458 kts | 214° |
| 2026-04-21 15:57 | 26.45975 | -16.86665 | 35970 ft | 458 kts | 214° |
| 2026-04-21 15:58 | 26.40254 | -16.89682 | 35967 ft | 457 kts | 215° |
| 2026-04-21 15:58 | 26.34502 | -16.92711 | 35987 ft | 457 kts | 215° |
| 2026-04-21 15:59 | 26.28763 | -16.95730 | 35986 ft | 456 kts | 215° |
| 2026-04-21 15:59 | 26.23013 | -16.98745 | 35986 ft | 456 kts | 215° |
| 2026-04-21 16:00 | 26.17276 | -17.01748 | 35982 ft | 456 kts | 215° |
| 2026-04-21 16:00 | 26.11582 | -17.04729 | 35959 ft | 455 kts | 216° |
| 2026-04-21 16:01 | 26.05860 | -17.07730 | 35979 ft | 453 kts | 216° |
| 2026-04-21 16:01 | 26.00166 | -17.10704 | 35990 ft | 452 kts | 216° |
| 2026-04-21 16:02 | 25.94473 | -17.13675 | 35990 ft | 451 kts | 216° |
| 2026-04-21 16:02 | 25.88826 | -17.16623 | 35989 ft | 451 kts | 216° |
| 2026-04-21 16:03 | 25.83151 | -17.19581 | 35987 ft | 451 kts | 216° |
| 2026-04-21 16:03 | 25.77479 | -17.22532 | 35975 ft | 450 kts | 217° |
| 2026-04-21 16:04 | 25.71818 | -17.25473 | 35985 ft | 449 kts | 217° |
| 2026-04-21 16:04 | 25.66170 | -17.28409 | 35987 ft | 448 kts | 217° |
| 2026-04-21 16:05 | 25.60572 | -17.31323 | 35985 ft | 448 kts | 217° |
| 2026-04-21 16:05 | 25.54921 | -17.34247 | 35987 ft | 448 kts | 217° |
| 2026-04-21 16:06 | 25.49288 | -17.37170 | 35958 ft | 447 kts | 218° |
| 2026-04-21 16:06 | 25.43658 | -17.40080 | 35972 ft | 446 kts | 218° |
| 2026-04-21 16:07 | 25.38085 | -17.42949 | 35987 ft | 444 kts | 218° |
| 2026-04-21 16:07 | 25.32502 | -17.45831 | 35992 ft | 442 kts | 218° |
| 2026-04-21 16:08 | 25.24154 | -17.50140 | 35993 ft | 441 kts | 218° |
| 2026-04-21 16:09 | 25.18586 | -17.53000 | 35944 ft | 441 kts | 219° |
| 2026-04-21 16:09 | 25.13043 | -17.55855 | 35981 ft | 439 kts | 220° |
| 2026-04-21 16:10 | 25.07542 | -17.58687 | 35987 ft | 438 kts | 219° |
| 2026-04-21 16:10 | 25.02020 | -17.61516 | 35989 ft | 438 kts | 219° |
| 2026-04-21 16:10 | 24.99323 | -17.63014 | 35987 ft | 426 kts | 226° |
| 2026-04-21 16:11 | 24.96824 | -17.64735 | 35988 ft | 423 kts | 226° |
| 2026-04-21 16:11 | 24.91844 | -17.68190 | 35987 ft | 423 kts | 226° |
| 2026-04-21 16:12 | 24.87701 | -17.71059 | 35987 ft | 423 kts | 226° |
| 2026-04-21 16:12 | 24.81904 | -17.75061 | 35950 ft | 423 kts | 227° |
| 2026-04-21 16:13 | 24.76910 | -17.78491 | 35973 ft | 422 kts | 227° |
| 2026-04-21 16:13 | 24.71936 | -17.81907 | 35984 ft | 422 kts | 227° |
| 2026-04-21 16:14 | 24.66963 | -17.85317 | 35988 ft | 421 kts | 227° |
| 2026-04-21 16:14 | 24.62030 | -17.88709 | 35990 ft | 421 kts | 227° |
| 2026-04-21 16:15 | 24.57072 | -17.92124 | 35990 ft | 421 kts | 227° |
| 2026-04-21 16:15 | 24.52100 | -17.95532 | 35959 ft | 421 kts | 227° |
| 2026-04-21 16:16 | 24.47125 | -17.98936 | 35966 ft | 421 kts | 227° |
| 2026-04-21 16:16 | 24.42174 | -18.02322 | 35987 ft | 422 kts | 227° |
| 2026-04-21 16:17 | 24.37195 | -18.05719 | 35976 ft | 422 kts | 227° |
| 2026-04-21 16:17 | 24.32218 | -18.09121 | 35959 ft | 421 kts | 227° |
| 2026-04-21 16:18 | 24.27264 | -18.12488 | 35969 ft | 422 kts | 227° |
| 2026-04-21 16:18 | 24.22292 | -18.15877 | 35966 ft | 421 kts | 227° |
| 2026-04-21 16:19 | 24.17327 | -18.19271 | 35947 ft | 421 kts | 227° |
| 2026-04-21 16:19 | 24.12348 | -18.22660 | 35953 ft | 422 kts | 227° |
| 2026-04-21 16:20 | 24.07393 | -18.26026 | 35966 ft | 422 kts | 227° |
| 2026-04-21 16:20 | 24.02398 | -18.29415 | 35973 ft | 423 kts | 226° |
| 2026-04-21 16:21 | 23.97400 | -18.32797 | 35982 ft | 423 kts | 227° |
| 2026-04-21 16:21 | 23.92404 | -18.36185 | 35987 ft | 423 kts | 226° |
| 2026-04-21 16:22 | 23.87405 | -18.39569 | 35954 ft | 422 kts | 226° |
| 2026-04-21 16:22 | 23.82451 | -18.42929 | 35966 ft | 422 kts | 226° |
| 2026-04-21 16:23 | 23.77463 | -18.46301 | 35966 ft | 422 kts | 226° |
| 2026-04-21 16:23 | 23.72476 | -18.49680 | 35980 ft | 422 kts | 226° |
| 2026-04-21 16:24 | 23.67483 | -18.53053 | 35985 ft | 422 kts | 226° |
| 2026-04-21 16:24 | 23.62487 | -18.56414 | 35988 ft | 422 kts | 226° |
| 2026-04-21 16:25 | 23.57518 | -18.59754 | 35989 ft | 422 kts | 226° |
| 2026-04-21 16:25 | 23.52527 | -18.63110 | 35987 ft | 422 kts | 226° |
| 2026-04-21 16:26 | 23.47532 | -18.66464 | 35995 ft | 422 kts | 226° |
| 2026-04-21 16:26 | 23.42560 | -18.69798 | 35993 ft | 422 kts | 226° |
| 2026-04-21 16:27 | 23.37567 | -18.73155 | 35996 ft | 422 kts | 226° |
| 2026-04-21 16:27 | 23.32565 | -18.76510 | 35992 ft | 422 kts | 226° |
| 2026-04-21 16:28 | 23.27569 | -18.79852 | 35993 ft | 422 kts | 226° |
| 2026-04-21 16:28 | 23.22604 | -18.83178 | 35991 ft | 422 kts | 226° |
| 2026-04-21 16:29 | 23.16768 | -18.87082 | 35961 ft | 422 kts | 226° |
| 2026-04-21 16:29 | 23.05121 | -18.94863 | 35987 ft | 424 kts | 226° |
| 2026-04-21 16:30 | 22.95064 | -19.01555 | 35996 ft | 424 kts | 226° |
| 2026-04-21 16:30 | 22.85009 | -19.08251 | 35954 ft | 424 kts | 225° |
| 2026-04-21 16:31 | 22.74937 | -19.14944 | 35967 ft | 424 kts | 225° |
| 2026-04-21 16:31 | 22.64932 | -19.21551 | 35978 ft | 424 kts | 225° |
| 2026-04-21 16:32 | 22.54860 | -19.28220 | 35934 ft | 424 kts | 225° |
| 2026-04-21 16:32 | 22.44777 | -19.34900 | 35990 ft | 426 kts | 224° |
| 2026-04-21 16:33 | 22.34729 | -19.41518 | 35992 ft | 425 kts | 224° |
| 2026-04-21 16:33 | 22.24643 | -19.48165 | 35989 ft | 425 kts | 224° |
| 2026-04-21 16:34 | 22.14541 | -19.54787 | 35960 ft | 425 kts | 224° |
| 2026-04-21 16:34 | 22.04420 | -19.61428 | 35973 ft | 426 kts | 224° |
| 2026-04-21 16:35 | 21.94308 | -19.68071 | 35980 ft | 426 kts | 224° |
| 2026-04-21 16:35 | 21.84231 | -19.74644 | 35953 ft | 426 kts | 223° |
| 2026-04-21 16:36 | 21.77294 | -19.79178 | 35961 ft | 427 kts | 223° |
| 2026-04-21 16:36 | 21.72217 | -19.82488 | 35959 ft | 427 kts | 223° |
| 2026-04-21 16:37 | 21.67131 | -19.85795 | 35963 ft | 427 kts | 223° |
| 2026-04-21 16:37 | 21.62053 | -19.89105 | 35967 ft | 427 kts | 223° |
| 2026-04-21 16:38 | 21.57005 | -19.92389 | 35968 ft | 427 kts | 223° |
| 2026-04-21 16:38 | 21.51914 | -19.95692 | 35949 ft | 428 kts | 222° |
| 2026-04-21 16:39 | 21.46816 | -19.99004 | 35953 ft | 428 kts | 222° |
| 2026-04-21 16:39 | 21.41722 | -20.02316 | 35966 ft | 429 kts | 222° |
| 2026-04-21 16:40 | 21.36652 | -20.05613 | 35969 ft | 429 kts | 222° |
| 2026-04-21 16:40 | 21.31540 | -20.08920 | 35975 ft | 429 kts | 222° |
| 2026-04-21 16:41 | 21.27250 | -20.11686 | 35978 ft | 429 kts | 222° |
| 2026-04-21 16:41 | 21.21301 | -20.15526 | 35969 ft | 430 kts | 222° |
| 2026-04-21 16:42 | 21.16181 | -20.18834 | 35953 ft | 430 kts | 221° |
| 2026-04-21 16:42 | 21.11098 | -20.22129 | 35965 ft | 430 kts | 221° |
| 2026-04-21 16:43 | 21.05969 | -20.25444 | 35978 ft | 430 kts | 221° |
| 2026-04-21 16:43 | 21.00840 | -20.28749 | 35979 ft | 431 kts | 221° |
| 2026-04-21 16:44 | 20.95702 | -20.32052 | 35980 ft | 431 kts | 221° |
| 2026-04-21 16:44 | 20.90567 | -20.35352 | 35988 ft | 431 kts | 221° |
| 2026-04-21 16:45 | 20.85474 | -20.38635 | 35950 ft | 431 kts | 221° |
| 2026-04-21 16:45 | 20.80335 | -20.41934 | 35966 ft | 431 kts | 221° |
| 2026-04-21 16:46 | 20.75199 | -20.45227 | 35974 ft | 431 kts | 221° |
| 2026-04-21 16:46 | 20.70069 | -20.48524 | 35980 ft | 430 kts | 221° |
| 2026-04-21 16:47 | 20.64934 | -20.51817 | 35982 ft | 430 kts | 221° |
| 2026-04-21 16:47 | 20.59848 | -20.55076 | 35985 ft | 429 kts | 221° |
| 2026-04-21 16:48 | 20.54727 | -20.58350 | 35987 ft | 429 kts | 221° |
| 2026-04-21 16:48 | 20.49617 | -20.61618 | 35959 ft | 428 kts | 220° |
| 2026-04-21 16:49 | 20.44628 | -20.64806 | 35965 ft | 428 kts | 220° |
| 2026-04-21 16:49 | 20.39546 | -20.68051 | 35971 ft | 428 kts | 220° |
| 2026-04-21 16:50 | 20.34435 | -20.71319 | 35972 ft | 429 kts | 220° |
| 2026-04-21 16:50 | 20.29315 | -20.74581 | 35978 ft | 429 kts | 220° |
| 2026-04-21 16:51 | 20.24183 | -20.77834 | 35982 ft | 429 kts | 220° |
| 2026-04-21 16:51 | 20.14084 | -20.84234 | 35987 ft | 429 kts | 220° |
| 2026-04-21 16:52 | 20.03899 | -20.90696 | 35985 ft | 428 kts | 220° |
| 2026-04-21 16:52 | 19.95408 | -20.96083 | 35976 ft | 427 kts | 220° |
| 2026-04-21 16:53 | 19.83460 | -21.03619 | 35966 ft | 428 kts | 220° |
| 2026-04-21 16:53 | 19.74961 | -21.08992 | 35980 ft | 427 kts | 220° |
| 2026-04-21 16:54 | 19.63075 | -21.16479 | 35975 ft | 427 kts | 219° |
| 2026-04-21 16:54 | 19.52855 | -21.22900 | 35978 ft | 427 kts | 219° |
| 2026-04-21 16:55 | 19.44364 | -21.28239 | 35952 ft | 427 kts | 219° |
| 2026-04-21 16:55 | 19.34147 | -21.34656 | 35955 ft | 427 kts | 219° |
| 2026-04-21 16:56 | 19.23106 | -21.41566 | 35959 ft | 428 kts | 219° |
| 2026-04-21 16:56 | 19.08497 | -21.50695 | 35962 ft | 427 kts | 219° |
| 2026-04-21 16:57 | 18.98271 | -21.57087 | 35972 ft | 427 kts | 219° |
| 2026-04-21 16:57 | 18.88119 | -21.63417 | 35974 ft | 427 kts | 219° |
| 2026-04-21 16:58 | 18.77871 | -21.69797 | 35954 ft | 427 kts | 218° |
| 2026-04-21 16:58 | 18.68813 | -21.75420 | 35962 ft | 427 kts | 218° |
| 2026-04-21 16:59 | 18.63963 | -21.78432 | 35963 ft | 427 kts | 218° |
| 2026-04-21 16:59 | 18.55509 | -21.83670 | 35966 ft | 427 kts | 218° |
| 2026-04-21 17:00 | 18.45281 | -21.90013 | 35951 ft | 426 kts | 218° |
| 2026-04-21 17:00 | 18.40041 | -21.93262 | 35963 ft | 426 kts | 218° |
| 2026-04-21 17:01 | 18.34929 | -21.96420 | 35971 ft | 426 kts | 218° |
| 2026-04-21 17:01 | 18.29805 | -21.99586 | 35970 ft | 426 kts | 218° |
| 2026-04-21 17:02 | 18.24702 | -22.02752 | 35972 ft | 426 kts | 218° |
| 2026-04-21 17:02 | 18.19611 | -22.05894 | 35974 ft | 427 kts | 218° |
| 2026-04-21 17:03 | 18.14494 | -22.09045 | 35974 ft | 427 kts | 218° |
| 2026-04-21 17:03 | 18.09362 | -22.12201 | 35967 ft | 427 kts | 217° |
| 2026-04-21 17:04 | 18.04236 | -22.15352 | 35969 ft | 427 kts | 217° |
| 2026-04-21 17:04 | 17.99120 | -22.18504 | 35973 ft | 427 kts | 217° |
| 2026-04-21 17:05 | 17.94030 | -22.21642 | 35981 ft | 427 kts | 217° |
| 2026-04-21 17:05 | 17.88914 | -22.24789 | 35980 ft | 426 kts | 217° |
| 2026-04-21 17:06 | 17.83788 | -22.27935 | 35974 ft | 426 kts | 217° |
| 2026-04-21 17:06 | 17.78680 | -22.31076 | 35974 ft | 426 kts | 217° |
| 2026-04-21 17:07 | 17.73554 | -22.34219 | 35354 ft | 429 kts | 217° |
| 2026-04-21 17:07 | 17.70957 | -22.35814 | 34302 ft | 438 kts | 217° |
| 2026-04-21 17:07 | 17.68305 | -22.37443 | 33337 ft | 443 kts | 217° |
| 2026-04-21 17:07 | 17.65675 | -22.39056 | 32455 ft | 444 kts | 217° |
| 2026-04-21 17:08 | 17.63001 | -22.40693 | 31510 ft | 448 kts | 217° |
| 2026-04-21 17:08 | 17.60294 | -22.42349 | 30537 ft | 452 kts | 217° |
| 2026-04-21 17:08 | 17.57565 | -22.44021 | 29456 ft | 458 kts | 217° |
| 2026-04-21 17:08 | 17.54797 | -22.45718 | 28322 ft | 462 kts | 217° |
| 2026-04-21 17:09 | 17.49206 | -22.49142 | 26030 ft | 471 kts | 216° |
| 2026-04-21 17:09 | 17.46370 | -22.50872 | 25141 ft | 472 kts | 216° |
| 2026-04-21 17:09 | 17.43528 | -22.52604 | 24454 ft | 471 kts | 216° |
| 2026-04-21 17:10 | 17.40702 | -22.54326 | 23793 ft | 470 kts | 216° |
| 2026-04-21 17:10 | 17.37860 | -22.56061 | 23079 ft | 476 kts | 216° |
| 2026-04-21 17:10 | 17.35005 | -22.57807 | 22308 ft | 474 kts | 215° |
| 2026-04-21 17:10 | 17.32210 | -22.59512 | 21593 ft | 468 kts | 215° |
| 2026-04-21 17:11 | 17.29412 | -22.61215 | 20986 ft | 462 kts | 214° |
| 2026-04-21 17:11 | 17.26663 | -22.62888 | 20391 ft | 456 kts | 214° |
| 2026-04-21 17:11 | 17.23930 | -22.64552 | 19809 ft | 450 kts | 214° |
| 2026-04-21 17:11 | 17.21248 | -22.66185 | 19241 ft | 444 kts | 213° |
| 2026-04-21 17:12 | 17.18587 | -22.67805 | 18676 ft | 439 kts | 213° |
| 2026-04-21 17:12 | 17.15973 | -22.69400 | 18098 ft | 433 kts | 213° |
| 2026-04-21 17:12 | 17.13385 | -22.70978 | 17452 ft | 427 kts | 213° |
| 2026-04-21 17:12 | 17.10829 | -22.72534 | 16831 ft | 422 kts | 213° |
| 2026-04-21 17:13 | 17.08341 | -22.74050 | 16223 ft | 417 kts | 213° |
| 2026-04-21 17:13 | 17.05846 | -22.75571 | 15611 ft | 412 kts | 213° |
| 2026-04-21 17:13 | 17.03391 | -22.77066 | 15021 ft | 406 kts | 213° |
| 2026-04-21 17:13 | 17.00966 | -22.78540 | 14424 ft | 400 kts | 213° |
| 2026-04-21 17:14 | 16.98572 | -22.79991 | 13864 ft | 394 kts | 213° |
| 2026-04-21 17:14 | 16.96217 | -22.81418 | 13240 ft | 389 kts | 213° |
| 2026-04-21 17:14 | 16.93902 | -22.82822 | 12614 ft | 383 kts | 213° |
| 2026-04-21 17:14 | 16.91616 | -22.84210 | 11998 ft | 378 kts | 213° |
| 2026-04-21 17:15 | 16.89354 | -22.85585 | 11392 ft | 373 kts | 213° |
| 2026-04-21 17:15 | 16.87159 | -22.86917 | 10812 ft | 368 kts | 213° |
| 2026-04-21 17:15 | 16.84963 | -22.88247 | 10308 ft | 361 kts | 213° |
| 2026-04-21 17:15 | 16.82827 | -22.89538 | 10067 ft | 347 kts | 212° |
| 2026-04-21 17:16 | 16.80775 | -22.90776 | 9868 ft | 333 kts | 213° |
| 2026-04-21 17:16 | 16.78819 | -22.91956 | 9745 ft | 318 kts | 213° |
| 2026-04-21 17:16 | 16.76946 | -22.93091 | 9616 ft | 304 kts | 213° |
| 2026-04-21 17:16 | 16.75156 | -22.94176 | 9489 ft | 292 kts | 213° |
| 2026-04-21 17:17 | 16.73401 | -22.95168 | 9354 ft | 282 kts | 206° |
| 2026-04-21 17:17 | 16.71585 | -22.95859 | 9137 ft | 276 kts | 204° |
| 2026-04-21 17:17 | 16.69798 | -22.96516 | 8794 ft | 274 kts | 203° |
| 2026-04-21 17:17 | 16.68008 | -22.97173 | 8441 ft | 272 kts | 204° |
| 2026-04-21 17:18 | 16.66228 | -22.97825 | 8072 ft | 270 kts | 204° |
| 2026-04-21 17:18 | 16.64457 | -22.98472 | 7713 ft | 269 kts | 204° |
| 2026-04-21 17:18 | 16.62698 | -22.99114 | 7355 ft | 267 kts | 204° |
| 2026-04-21 17:18 | 16.60955 | -22.99752 | 7003 ft | 265 kts | 204° |
| 2026-04-21 17:19 | 16.59216 | -23.00387 | 6645 ft | 263 kts | 204° |
| 2026-04-21 17:19 | 16.57496 | -23.01017 | 6304 ft | 261 kts | 204° |
| 2026-04-21 17:19 | 16.55802 | -23.01639 | 6012 ft | 257 kts | 203° |
| 2026-04-21 17:19 | 16.54124 | -23.02254 | 5719 ft | 253 kts | 203° |
| 2026-04-21 17:20 | 16.52477 | -23.02773 | 5430 ft | 251 kts | 191° |
| 2026-04-21 17:20 | 16.50743 | -23.02632 | 5143 ft | 254 kts | 164° |
| 2026-04-21 17:20 | 16.49241 | -23.01688 | 4861 ft | 255 kts | 136° |
| 2026-04-21 17:20 | 16.48295 | -23.00146 | 4559 ft | 255 kts | 108° |
| 2026-04-21 17:21 | 16.48104 | -22.98343 | 4293 ft | 249 kts | 79° |
| 2026-04-21 17:21 | 16.48662 | -22.96683 | 4055 ft | 240 kts | 54° |
| 2026-04-21 17:21 | 16.49789 | -22.95458 | 3814 ft | 232 kts | 31° |
| 2026-04-21 17:21 | 16.51246 | -22.94838 | 3593 ft | 224 kts | 8° |
| 2026-04-21 17:22 | 16.52780 | -22.94770 | 3426 ft | 217 kts | 0° |
| 2026-04-21 17:22 | 16.54250 | -22.94767 | 3256 ft | 212 kts | 1° |
| 2026-04-21 17:22 | 16.55704 | -22.94773 | 3084 ft | 207 kts | 0° |
| 2026-04-21 17:22 | 16.57127 | -22.94782 | 2903 ft | 202 kts | 1° |
| 2026-04-21 17:23 | 16.58507 | -22.94791 | 2812 ft | 194 kts | 1° |
| 2026-04-21 17:23 | 16.59825 | -22.94801 | 2608 ft | 186 kts | 1° |
| 2026-04-21 17:23 | 16.61105 | -22.94809 | 2370 ft | 181 kts | 1° |
| 2026-04-21 17:23 | 16.62341 | -22.94818 | 2131 ft | 176 kts | 1° |
| 2026-04-21 17:24 | 16.63550 | -22.94826 | 1898 ft | 172 kts | 2° |
| 2026-04-21 17:24 | 16.64720 | -22.94834 | 1680 ft | 169 kts | 1° |
| 2026-04-21 17:24 | 16.65863 | -22.94842 | 1479 ft | 158 kts | 2° |
| 2026-04-21 17:24 | 16.66913 | -22.94850 | 1254 ft | 143 kts | 1° |
| 2026-04-21 17:25 | 16.67873 | -22.94856 | 1070 ft | 135 kts | 0° |
| 2026-04-21 17:25 | 16.68806 | -22.94865 | 888 ft | 133 kts | 4° |
| 2026-04-21 17:25 | 16.69725 | -22.94877 | 742 ft | 133 kts | 4° |
| 2026-04-21 17:25 | 16.70656 | -22.94879 | 584 ft | 134 kts | 4° |
| 2026-04-21 17:26 | 16.71590 | -22.94870 | 406 ft | 134 kts | 3° |
| 2026-04-21 17:26 | 16.72525 | -22.94892 | 231 ft | 134 kts | 5° |
| 2026-04-21 17:26 | 16.73413 | -22.94894 | 185 ft | 114 kts | 3° |
| 2026-04-21 17:26 | 16.74015 | -22.94896 | 179 ft | 47 kts | 358° |
| 2026-04-21 17:27 | 16.74216 | -22.94874 | 177 ft | 22 kts | 39° |
| 2026-04-21 17:27 | 16.74292 | -22.94756 | 179 ft | 18 kts | 59° |
| 2026-04-21 17:27 | 16.74248 | -22.94698 | 181 ft | 12 kts | 172° |
| 2026-04-21 17:27 | 16.74171 | -22.94696 | 181 ft | 11 kts | 180° |
| 2026-04-21 17:28 | 16.74097 | -22.94696 | 180 ft | 13 kts | 180° |
| 2026-04-21 17:28 | 16.73977 | -22.94696 | 180 ft | 22 kts | 181° |
| 2026-04-21 17:28 | 16.73795 | -22.94699 | 180 ft | 29 kts | 179° |
| 2026-04-21 17:28 | 16.73608 | -22.94611 | 181 ft | 31 kts | 145° |
| 2026-04-21 17:29 | 16.73478 | -22.94549 | 181 ft | 15 kts | 175° |
| 2026-04-21 17:29 | 16.73433 | -22.94485 | 181 ft | 6 kts | 89° |
| 2026-04-21 17:29 | 16.73433 | -22.94484 | 181 ft | 0 kts | 89° |